createdAt,value
2023-01-15T00:00:26.912Z,11.70
2023-01-15T00:02:58.035Z,11.60
2023-01-15T00:05:28.913Z,11.60
2023-01-15T00:07:59.797Z,11.60
2023-01-15T00:10:30.867Z,11.50
2023-01-15T00:13:01.836Z,11.60
2023-01-15T00:15:32.717Z,11.60
2023-01-15T00:18:04.134Z,11.50
2023-01-15T00:20:35.045Z,11.60
2023-01-15T00:23:05.925Z,11.50
2023-01-15T00:25:55.136Z,11.50
2023-01-15T00:28:26.015Z,11.50
2023-01-15T00:30:56.930Z,11.60
2023-01-15T00:33:27.863Z,11.60
2023-01-15T00:35:58.751Z,11.60
2023-01-15T00:38:29.606Z,11.70
2023-01-15T00:41:00.552Z,11.80
2023-01-15T00:43:31.418Z,11.70
2023-01-15T00:46:02.678Z,11.70
2023-01-15T00:48:33.570Z,11.70
2023-01-15T00:51:04.802Z,11.70
2023-01-15T00:53:35.694Z,11.60
2023-01-15T00:56:06.820Z,11.60
2023-01-15T00:58:37.699Z,11.70
2023-01-15T01:01:08.704Z,11.80
2023-01-15T01:03:41.402Z,11.80
2023-01-15T01:06:12.292Z,11.80
2023-01-15T01:08:46.115Z,11.80
2023-01-15T01:11:20.607Z,11.70
2023-01-15T01:13:51.474Z,11.70
2023-01-15T01:16:37.932Z,11.80
2023-01-15T01:19:15.499Z,11.80
2023-01-15T01:21:47.461Z,11.80
2023-01-15T01:24:22.292Z,11.80
2023-01-15T01:26:54.675Z,11.90
2023-01-15T01:29:25.838Z,11.80
2023-01-15T01:31:56.720Z,11.80
2023-01-15T01:34:27.656Z,11.80
2023-01-15T01:36:58.816Z,11.80
2023-01-15T01:39:29.733Z,11.90
2023-01-15T01:42:00.631Z,11.90
2023-01-15T01:44:34.885Z,12.00
2023-01-15T01:47:23.839Z,12.00
2023-01-15T01:50:10.101Z,12.00
2023-01-15T01:52:51.794Z,12.10
2023-01-15T01:55:25.213Z,12.10
2023-01-15T01:57:59.813Z,12.00
2023-01-15T02:00:33.530Z,12.10
2023-01-15T02:03:08.004Z,12.00
2023-01-15T02:05:45.318Z,11.90
2023-01-15T02:08:16.243Z,12.00
2023-01-15T02:10:56.396Z,12.00
2023-01-15T02:14:06.399Z,12.00
2023-01-15T02:16:45.906Z,12.00
2023-01-15T02:19:38.494Z,11.90
2023-01-15T02:22:46.160Z,11.90
2023-01-15T02:25:27.186Z,12.00
2023-01-15T02:28:17.191Z,11.90
2023-01-15T02:31:05.097Z,11.90
2023-01-15T02:33:41.608Z,12.00
2023-01-15T02:36:16.332Z,12.00
2023-01-15T02:38:49.722Z,12.00
2023-01-15T02:41:26.483Z,12.00
2023-01-15T02:43:59.158Z,12.00
2023-01-15T02:46:35.003Z,12.00
2023-01-15T02:49:09.672Z,12.00
2023-01-15T02:52:06.222Z,11.90
2023-01-15T02:55:08.086Z,12.00
2023-01-15T02:57:41.745Z,12.00
2023-01-15T03:00:16.487Z,12.00
2023-01-15T03:02:55.010Z,12.00
2023-01-15T03:05:40.577Z,12.00
2023-01-15T03:08:12.029Z,11.90
2023-01-15T03:10:53.060Z,12.00
2023-01-15T03:13:57.512Z,11.90
2023-01-15T03:16:40.403Z,11.90
2023-01-15T03:19:31.952Z,11.90
2023-01-15T03:22:29.470Z,11.90
2023-01-15T03:25:06.655Z,11.90
2023-01-15T03:27:37.663Z,11.90
2023-01-15T03:30:14.923Z,11.90
2023-01-15T03:32:46.362Z,11.80
2023-01-15T03:35:52.806Z,11.70
2023-01-15T03:38:35.396Z,11.80
2023-01-15T03:41:21.255Z,11.80
2023-01-15T03:44:16.303Z,11.90
2023-01-15T03:47:27.236Z,11.90
2023-01-15T03:50:16.092Z,11.90
2023-01-15T03:53:01.772Z,12.00
2023-01-15T03:55:59.961Z,12.00
2023-01-15T03:58:46.050Z,12.10
2023-01-15T04:01:23.482Z,12.10
2023-01-15T04:03:56.056Z,12.20
2023-01-15T04:06:32.503Z,12.30
2023-01-15T04:09:08.378Z,12.30
2023-01-15T04:11:39.339Z,12.40
2023-01-15T04:14:14.427Z,12.50
2023-01-15T04:16:45.310Z,12.60
2023-01-15T04:19:16.225Z,12.60
2023-01-15T04:21:47.148Z,12.70
2023-01-15T04:24:18.062Z,12.70
2023-01-15T04:26:48.933Z,12.70
2023-01-15T04:29:20.046Z,12.80
2023-01-15T04:31:53.627Z,12.80
2023-01-15T04:34:28.903Z,12.80
2023-01-15T04:36:59.845Z,12.90
2023-01-15T04:39:30.917Z,12.90
2023-01-15T04:42:20.647Z,12.80
2023-01-15T04:44:51.621Z,12.80
2023-01-15T04:47:22.494Z,12.80
2023-01-15T04:49:56.014Z,12.70
2023-01-15T04:52:26.923Z,12.70
2023-01-15T04:54:57.825Z,12.70
2023-01-15T04:57:28.727Z,12.70
2023-01-15T04:59:59.654Z,12.70
2023-01-15T05:02:30.618Z,12.70
2023-01-15T05:05:01.652Z,12.70
2023-01-15T05:07:32.592Z,12.70
2023-01-15T05:10:03.798Z,12.80
2023-01-15T05:12:34.656Z,12.70
2023-01-15T05:15:06.508Z,12.70
2023-01-15T05:17:37.375Z,12.70
2023-01-15T05:20:09.309Z,12.70
2023-01-15T05:22:40.169Z,12.70
2023-01-15T05:25:11.163Z,12.70
2023-01-15T05:27:42.767Z,12.00
2023-01-15T05:30:14.466Z,11.20
2023-01-15T05:32:45.306Z,10.30
2023-01-15T05:35:16.367Z,9.80
2023-01-15T05:37:47.200Z,9.40
2023-01-15T05:40:18.201Z,9.20
2023-01-15T05:42:49.063Z,9.10
2023-01-15T05:45:19.961Z,9.00
2023-01-15T05:47:53.753Z,8.90
2023-01-15T05:50:24.662Z,8.70
2023-01-15T05:52:56.635Z,8.70
2023-01-15T05:55:27.549Z,8.60
2023-01-15T05:57:58.535Z,8.60
2023-01-15T06:00:30.580Z,8.60
2023-01-15T06:03:01.669Z,8.60
2023-01-15T06:05:32.577Z,8.50
2023-01-15T06:08:03.526Z,8.50
2023-01-15T06:10:34.409Z,8.40
2023-01-15T06:13:05.274Z,8.40
2023-01-15T06:15:36.171Z,8.40
2023-01-15T06:18:07.251Z,8.40
2023-01-15T06:20:39.794Z,8.40
2023-01-15T06:23:10.742Z,8.40
2023-01-15T06:25:41.590Z,8.40
2023-01-15T06:28:12.527Z,8.40
2023-01-15T06:30:43.501Z,8.40
2023-01-15T06:33:14.337Z,8.40
2023-01-15T06:35:45.243Z,8.50
2023-01-15T06:38:16.284Z,8.40
2023-01-15T06:40:47.182Z,8.40
2023-01-15T06:43:36.710Z,8.20
2023-01-15T06:46:27.767Z,8.20
2023-01-15T06:49:00.044Z,8.20
2023-01-15T06:51:31.328Z,8.10
2023-01-15T06:54:02.300Z,8.00
2023-01-15T06:56:33.240Z,7.80
2023-01-15T06:59:04.312Z,7.80
2023-01-15T07:01:35.231Z,7.70
2023-01-15T07:04:06.159Z,7.60
2023-01-15T07:06:37.179Z,7.40
2023-01-15T07:09:08.086Z,7.40
2023-01-15T07:11:49.635Z,7.40
2023-01-15T07:14:26.763Z,7.30
2023-01-15T07:16:59.263Z,7.20
2023-01-15T07:19:30.343Z,7.10
2023-01-15T07:22:01.377Z,7.10
2023-01-15T07:24:32.561Z,7.00
2023-01-15T07:27:03.707Z,6.90
2023-01-15T07:29:34.927Z,6.90
2023-01-15T07:32:06.543Z,6.80
2023-01-15T07:34:37.413Z,6.60
2023-01-15T07:37:08.274Z,6.60
2023-01-15T07:39:39.164Z,6.60
2023-01-15T07:42:29.511Z,6.50
2023-01-15T07:45:19.044Z,6.50
2023-01-15T07:48:08.548Z,6.60
2023-01-15T07:50:40.539Z,6.60
2023-01-15T07:53:11.431Z,6.70
2023-01-15T07:55:42.386Z,6.60
2023-01-15T07:58:20.695Z,6.70
2023-01-15T08:00:51.624Z,6.80
2023-01-15T08:03:22.508Z,6.70
2023-01-15T08:05:54.710Z,6.60
2023-01-15T08:08:26.433Z,6.60
2023-01-15T08:11:20.695Z,6.60
2023-01-15T08:14:10.149Z,6.70
2023-01-15T08:16:41.045Z,6.70
2023-01-15T08:19:11.920Z,6.70
2023-01-15T08:21:42.791Z,6.80
2023-01-15T08:24:13.856Z,6.70
2023-01-15T08:26:44.711Z,6.60
2023-01-15T08:29:15.635Z,6.70
2023-01-15T08:31:46.835Z,6.70
2023-01-15T08:34:19.207Z,6.60
2023-01-15T08:36:53.088Z,6.60
2023-01-15T08:39:24.000Z,6.60
2023-01-15T08:41:56.577Z,6.50
2023-01-15T08:44:27.554Z,6.40
2023-01-15T08:46:58.475Z,6.40
2023-01-15T08:49:30.586Z,6.40
2023-01-15T08:52:01.429Z,6.40
2023-01-15T08:54:32.431Z,6.40
2023-01-15T08:57:03.367Z,6.30
2023-01-15T08:59:34.279Z,6.30
2023-01-15T09:02:05.326Z,6.30
2023-01-15T09:04:36.690Z,6.30
2023-01-15T09:07:11.785Z,6.30
2023-01-15T09:09:42.674Z,6.30
2023-01-15T09:12:14.256Z,6.30
2023-01-15T09:14:55.976Z,6.30
2023-01-15T09:17:33.037Z,6.40
2023-01-15T09:20:04.753Z,6.40
2023-01-15T09:22:35.864Z,6.40
2023-01-15T09:25:07.786Z,6.50
2023-01-15T09:27:38.649Z,6.50
2023-01-15T09:30:18.087Z,6.50
2023-01-15T09:32:49.373Z,6.50
2023-01-15T09:35:20.365Z,6.50
2023-01-15T09:37:54.891Z,6.50
2023-01-15T09:40:46.416Z,6.50
2023-01-15T09:43:50.734Z,6.50
2023-01-15T09:46:53.898Z,6.50
2023-01-15T09:49:37.752Z,6.40
2023-01-15T09:52:37.959Z,6.40
2023-01-15T09:55:37.208Z,6.40
2023-01-15T09:58:12.264Z,6.40
2023-01-15T10:00:49.811Z,6.50
2023-01-15T10:03:43.058Z,6.50
2023-01-15T10:06:23.060Z,6.50
2023-01-15T10:09:11.576Z,6.50
2023-01-15T10:12:17.880Z,6.40
2023-01-15T10:15:21.231Z,6.30
2023-01-15T10:17:57.520Z,6.20
2023-01-15T10:21:07.574Z,6.10
2023-01-15T10:24:02.950Z,6.10
2023-01-15T10:26:40.874Z,6.00
2023-01-15T10:29:17.349Z,6.00
2023-01-15T10:32:10.597Z,5.90
2023-01-15T10:35:17.280Z,5.90
2023-01-15T10:38:12.888Z,5.80
2023-01-15T10:41:25.248Z,5.80
2023-01-15T10:44:11.660Z,5.70
2023-01-15T10:46:52.810Z,5.70
2023-01-15T10:49:29.442Z,5.90
2023-01-15T10:52:18.499Z,5.70
2023-01-15T10:55:07.088Z,5.70
2023-01-15T10:57:56.448Z,5.50
2023-01-15T11:00:33.202Z,5.40
2023-01-15T11:03:15.408Z,5.30
2023-01-15T11:05:47.096Z,5.20
2023-01-15T11:11:54.067Z,5.00
2023-01-15T11:15:02.945Z,5.00
2023-01-15T11:18:10.867Z,4.90
2023-01-15T11:20:46.801Z,4.90
2023-01-15T11:23:21.621Z,4.80
2023-01-15T11:25:56.141Z,4.80
2023-01-15T11:28:43.068Z,4.70
2023-01-15T11:31:15.520Z,4.70
2023-01-15T11:34:01.051Z,4.70
2023-01-15T11:36:33.585Z,4.70
2023-01-15T11:39:04.475Z,4.70
2023-01-15T11:41:55.187Z,4.70
2023-01-15T11:44:44.793Z,4.70
2023-01-15T11:47:38.645Z,4.60
2023-01-15T11:50:37.880Z,4.60
2023-01-15T11:53:24.388Z,4.50
2023-01-15T11:56:03.565Z,4.60
2023-01-15T11:58:43.238Z,4.60
2023-01-15T12:01:23.877Z,4.50
2023-01-15T12:03:56.279Z,4.60
2023-01-15T12:06:30.234Z,4.70
2023-01-15T12:09:29.129Z,4.70
2023-01-15T12:12:36.715Z,4.80
2023-01-15T12:15:31.802Z,4.80
2023-01-15T12:18:44.099Z,4.90
2023-01-15T12:21:24.418Z,4.90
2023-01-15T12:24:34.876Z,4.90
2023-01-15T12:27:18.705Z,4.90
2023-01-15T12:30:27.371Z,5.00
2023-01-15T12:33:18.975Z,5.00
2023-01-15T12:36:03.740Z,5.00
2023-01-15T12:39:04.403Z,5.00
2023-01-15T12:41:57.761Z,5.00
2023-01-15T12:45:01.476Z,5.10
2023-01-15T12:47:39.927Z,5.10
2023-01-15T12:50:45.567Z,5.10
2023-01-15T12:53:21.595Z,5.20
2023-01-15T12:56:17.494Z,5.30
2023-01-15T12:59:14.890Z,5.30
2023-01-15T13:02:39.352Z,5.30
2023-01-15T13:05:31.110Z,5.30
2023-01-15T13:08:28.138Z,5.40
2023-01-15T13:10:59.227Z,5.40
2023-01-15T13:13:40.766Z,5.50
2023-01-15T13:16:33.907Z,5.50
2023-01-15T13:19:29.814Z,5.50
2023-01-15T13:22:09.165Z,5.60
2023-01-15T13:25:06.115Z,5.70
2023-01-15T13:28:00.707Z,5.80
2023-01-15T13:31:07.344Z,5.80
2023-01-15T13:33:53.261Z,5.90
2023-01-15T13:36:40.658Z,5.90
2023-01-15T13:39:25.172Z,6.00
2023-01-15T13:42:15.079Z,6.00
2023-01-15T13:44:52.178Z,6.00
2023-01-15T13:47:28.576Z,5.90
2023-01-15T13:50:04.873Z,6.00
2023-01-15T13:52:37.520Z,6.10
2023-01-15T13:55:38.682Z,6.20
2023-01-15T13:58:30.906Z,6.20
2023-01-15T14:01:20.733Z,6.30
2023-01-15T14:04:10.630Z,6.40
2023-01-15T14:06:46.503Z,6.60
2023-01-15T14:09:23.618Z,6.80
2023-01-15T14:12:14.054Z,6.90
2023-01-15T14:15:09.101Z,7.00
2023-01-15T14:18:26.476Z,7.10
2023-01-15T14:21:27.733Z,7.10
2023-01-15T14:24:14.909Z,7.10
2023-01-15T14:26:54.440Z,7.10
2023-01-15T14:29:51.872Z,7.10
2023-01-15T14:32:51.293Z,7.00
2023-01-15T14:35:24.467Z,6.90
2023-01-15T14:38:03.223Z,6.90
2023-01-15T14:40:36.456Z,6.80
2023-01-15T14:43:17.823Z,6.80
2023-01-15T14:45:50.733Z,6.90
2023-01-15T14:48:30.965Z,6.80
2023-01-15T14:51:15.909Z,6.70
2023-01-15T14:53:56.031Z,6.70
2023-01-15T14:56:44.310Z,6.80
2023-01-15T14:59:21.234Z,6.70
2023-01-15T15:01:58.129Z,6.70
2023-01-15T15:04:52.064Z,6.70
2023-01-15T15:07:26.877Z,6.60
2023-01-15T15:10:19.314Z,6.50
2023-01-15T15:13:03.084Z,6.60
2023-01-15T15:15:50.574Z,6.60
2023-01-15T15:18:36.241Z,6.60
2023-01-15T15:21:27.932Z,6.60
2023-01-15T15:24:29.057Z,6.60
2023-01-15T15:27:24.234Z,6.50
2023-01-15T15:30:07.708Z,6.50
2023-01-15T15:32:43.130Z,6.50
2023-01-15T15:35:35.748Z,6.50
2023-01-15T15:38:06.739Z,6.40
2023-01-15T15:40:49.386Z,6.50
2023-01-15T15:44:05.673Z,6.40
2023-01-15T15:46:55.433Z,6.40
2023-01-15T15:49:26.391Z,6.40
2023-01-15T15:51:57.298Z,6.30
2023-01-15T15:54:35.844Z,6.30
2023-01-15T15:57:14.854Z,6.20
2023-01-15T15:59:50.609Z,6.30
2023-01-15T16:02:36.219Z,6.20
2023-01-15T16:05:19.208Z,6.20
2023-01-15T16:07:51.056Z,6.10
2023-01-15T16:10:34.487Z,6.20
2023-01-15T16:13:12.422Z,6.20
2023-01-15T16:15:50.865Z,6.10
2023-01-15T16:18:34.853Z,6.10
2023-01-15T16:21:08.749Z,6.00
2023-01-15T16:23:40.337Z,6.00
2023-01-15T16:26:21.554Z,5.90
2023-01-15T16:29:00.552Z,5.90
2023-01-15T16:31:36.643Z,5.80
2023-01-15T16:34:37.206Z,5.90
2023-01-15T16:37:30.592Z,5.90
2023-01-15T16:40:04.961Z,5.80
2023-01-15T16:42:43.767Z,5.80
2023-01-15T16:45:27.935Z,5.80
2023-01-15T16:48:07.943Z,5.70
2023-01-15T16:50:42.450Z,5.70
2023-01-15T16:53:45.633Z,5.60
2023-01-15T16:56:39.883Z,5.70
2023-01-15T16:59:56.019Z,5.60
2023-01-15T17:02:44.191Z,5.60
2023-01-15T17:05:22.136Z,5.50
2023-01-15T17:07:55.866Z,5.60
2023-01-15T17:10:32.789Z,5.50
2023-01-15T17:13:03.738Z,5.50
2023-01-15T17:15:41.245Z,5.50
2023-01-15T17:18:27.219Z,5.40
2023-01-15T17:20:59.974Z,5.40
2023-01-15T17:23:40.946Z,5.50
2023-01-15T17:26:19.603Z,5.50
2023-01-15T17:28:53.391Z,5.50
2023-01-15T17:31:36.344Z,5.50
2023-01-15T17:34:07.392Z,5.50
2023-01-15T17:36:38.868Z,5.40
2023-01-15T17:39:13.350Z,5.40
2023-01-15T17:41:46.567Z,5.40
2023-01-15T17:44:17.522Z,5.40
2023-01-15T17:46:49.355Z,5.50
2023-01-15T17:49:25.457Z,5.40
2023-01-15T17:51:59.367Z,5.30
2023-01-15T17:54:48.488Z,5.40
2023-01-15T17:57:37.957Z,5.40
2023-01-15T18:00:31.672Z,5.40
2023-01-15T18:03:21.503Z,5.30
2023-01-15T18:05:54.916Z,5.30
2023-01-15T18:08:27.602Z,5.30
2023-01-15T18:11:05.829Z,5.10
2023-01-15T18:13:36.752Z,5.10
2023-01-15T18:16:08.642Z,5.10
2023-01-15T18:18:39.739Z,5.10
2023-01-15T18:21:10.781Z,5.10
2023-01-15T18:23:41.704Z,5.20
2023-01-15T18:26:12.623Z,5.20
2023-01-15T18:28:49.868Z,5.10
2023-01-15T18:31:20.906Z,5.10
2023-01-15T18:33:51.808Z,5.00
2023-01-15T18:36:23.823Z,5.10
2023-01-15T18:38:55.769Z,5.00
2023-01-15T18:41:43.427Z,5.00
2023-01-15T18:44:36.598Z,4.90
2023-01-15T18:47:15.519Z,5.00
2023-01-15T18:49:49.403Z,5.00
2023-01-15T18:52:39.064Z,4.90
2023-01-15T18:55:10.289Z,5.00
2023-01-15T18:57:41.224Z,5.10
2023-01-15T19:00:12.949Z,5.00
2023-01-15T19:02:47.399Z,5.00
2023-01-15T19:05:21.024Z,5.00
2023-01-15T19:07:52.159Z,5.00
2023-01-15T19:10:25.066Z,5.00
2023-01-15T19:12:56.004Z,5.00
2023-01-15T19:15:45.485Z,5.10
2023-01-15T19:18:37.581Z,5.10
2023-01-15T19:21:13.060Z,5.20
2023-01-15T19:23:43.911Z,5.20
2023-01-15T19:26:17.752Z,5.20
2023-01-15T19:28:48.707Z,5.20
2023-01-15T19:31:39.273Z,5.30
2023-01-15T19:34:32.746Z,5.30
2023-01-15T19:37:02.653Z,5.30
2023-01-15T19:39:33.615Z,5.30
2023-01-15T19:42:23.303Z,5.30
2023-01-15T19:45:12.555Z,5.30
2023-01-15T19:48:02.808Z,5.40
2023-01-15T19:50:44.328Z,5.40
2023-01-15T19:53:15.210Z,5.40
2023-01-15T19:55:46.341Z,5.30
2023-01-15T19:58:17.351Z,5.30
2023-01-15T20:00:49.191Z,5.30
2023-01-15T20:03:20.173Z,5.30
2023-01-15T20:05:51.096Z,5.30
2023-01-15T20:08:22.414Z,5.30
2023-01-15T20:10:53.349Z,5.20
2023-01-15T20:13:43.351Z,5.20
2023-01-15T20:16:19.840Z,5.10
2023-01-15T20:18:52.134Z,5.20
2023-01-15T20:21:23.217Z,5.10
2023-01-15T20:23:54.118Z,5.10
2023-01-15T20:26:26.446Z,5.20
2023-01-15T20:28:57.309Z,5.10
2023-01-15T20:31:28.282Z,5.10
2023-01-15T20:34:02.077Z,5.10
2023-01-15T20:36:34.811Z,5.00
2023-01-15T20:39:05.674Z,5.10
2023-01-15T20:41:54.919Z,5.10
2023-01-15T20:44:44.755Z,5.00
2023-01-15T20:47:35.900Z,5.00
2023-01-15T20:50:09.504Z,5.00
2023-01-15T20:52:45.377Z,5.00
2023-01-15T20:55:18.078Z,5.00
2023-01-15T20:57:49.144Z,5.10
2023-01-15T21:00:22.989Z,5.10
2023-01-15T21:02:57.719Z,5.00
2023-01-15T21:05:31.163Z,5.10
2023-01-15T21:08:02.092Z,5.00
2023-01-15T21:10:33.082Z,5.00
2023-01-15T21:13:04.779Z,4.90
2023-01-15T21:15:35.978Z,4.70
2023-01-15T21:18:06.878Z,4.60
2023-01-15T21:20:39.351Z,4.70
2023-01-15T21:23:10.224Z,4.60
2023-01-15T21:25:42.301Z,4.70
2023-01-15T21:28:13.278Z,4.70
2023-01-15T21:30:44.898Z,4.70
2023-01-15T21:33:15.752Z,4.60
2023-01-15T21:35:46.745Z,4.70
2023-01-15T21:38:17.894Z,4.70
2023-01-15T21:40:48.858Z,4.60
2023-01-15T21:43:38.292Z,4.60
2023-01-15T21:46:09.360Z,4.60
2023-01-15T21:48:40.289Z,4.50
2023-01-15T21:51:11.168Z,4.60
2023-01-15T21:53:42.035Z,4.60
2023-01-15T21:56:12.961Z,4.60
2023-01-15T21:58:45.937Z,4.50
2023-01-15T22:01:18.271Z,4.50
2023-01-15T22:03:49.215Z,4.50
2023-01-15T22:06:20.077Z,4.40
2023-01-15T22:08:55.091Z,4.40
2023-01-15T22:11:45.383Z,4.50
2023-01-15T22:14:19.267Z,4.50
2023-01-15T22:16:55.844Z,4.30
2023-01-15T22:19:29.237Z,4.40
2023-01-15T22:22:08.460Z,4.50
2023-01-15T22:24:41.213Z,4.60
2023-01-15T22:27:16.133Z,4.60
2023-01-15T22:29:49.476Z,4.50
2023-01-15T22:32:20.415Z,4.60
2023-01-15T22:34:52.072Z,4.60
2023-01-15T22:37:22.955Z,4.50
2023-01-15T22:39:53.983Z,4.40
2023-01-15T22:42:24.904Z,4.50
2023-01-15T22:44:57.253Z,4.50
2023-01-15T22:47:29.259Z,4.50
2023-01-15T22:50:00.199Z,4.40
2023-01-15T22:52:31.185Z,4.40
2023-01-15T22:55:02.200Z,4.40
2023-01-15T22:57:33.974Z,4.50
2023-01-15T23:00:07.381Z,4.50
2023-01-15T23:02:56.378Z,4.50
2023-01-15T23:05:27.277Z,4.50
2023-01-15T23:07:58.176Z,4.50
2023-01-15T23:10:29.093Z,4.60
2023-01-15T23:13:00.000Z,4.50
2023-01-15T23:15:30.961Z,4.50
2023-01-15T23:18:01.831Z,4.60
2023-01-15T23:20:32.810Z,4.50
2023-01-15T23:23:03.765Z,4.50
2023-01-15T23:25:34.623Z,4.60
2023-01-15T23:28:05.616Z,4.60
2023-01-15T23:30:36.527Z,4.60
2023-01-15T23:33:08.273Z,4.60
2023-01-15T23:35:39.151Z,4.50
2023-01-15T23:38:10.006Z,4.60
2023-01-15T23:40:42.758Z,4.60
2023-01-15T23:43:34.702Z,4.60
2023-01-15T23:46:26.157Z,4.60
2023-01-15T23:48:57.035Z,4.60
2023-01-15T23:51:28.018Z,4.60
2023-01-15T23:54:00.291Z,4.60
2023-01-15T23:56:33.092Z,4.60
2023-01-15T23:59:03.951Z,4.50
